createdAt,value
2023-04-17T11:54:25.407Z,9.80
2023-04-17T11:57:02.759Z,9.90
2023-04-17T11:59:34.904Z,9.80
2023-04-17T12:02:03.641Z,9.80
2023-04-17T12:04:34.280Z,10.00
2023-04-17T12:07:03.511Z,10.00
2023-04-17T12:09:32.005Z,9.80
2023-04-17T12:12:05.558Z,9.90
2023-04-17T12:14:33.564Z,9.80
2023-04-17T12:17:01.397Z,9.80
2023-04-17T12:19:29.926Z,9.80
2023-04-17T12:21:59.366Z,9.80
2023-04-17T12:24:27.250Z,9.80
2023-04-17T12:26:54.957Z,9.80
2023-04-17T12:29:36.293Z,9.90
2023-04-17T12:32:10.915Z,9.90
2023-04-17T12:34:38.756Z,9.80
2023-04-17T12:37:06.414Z,10.00
2023-04-17T12:39:33.860Z,9.80
2023-04-17T12:42:01.398Z,9.70
2023-04-17T12:44:28.970Z,9.90
2023-04-17T12:46:56.467Z,9.70
2023-04-17T12:49:23.984Z,9.80
2023-04-17T12:51:51.816Z,9.80
2023-04-17T12:54:19.430Z,9.80
2023-04-17T12:56:46.967Z,9.70
2023-04-17T12:59:14.499Z,9.80
2023-04-17T13:01:42.705Z,9.80
2023-04-17T13:04:10.546Z,9.70
2023-04-17T13:06:38.326Z,9.70
2023-04-17T13:09:06.195Z,9.80
2023-04-17T13:11:33.669Z,9.80
2023-04-17T13:14:01.103Z,9.80
2023-04-17T13:16:28.764Z,9.80
2023-04-17T13:18:56.276Z,10.00
2023-04-17T13:21:23.920Z,10.10
2023-04-17T13:23:51.372Z,9.90
2023-04-17T13:26:20.482Z,9.90
2023-04-17T13:28:48.139Z,9.80
2023-04-17T13:31:15.632Z,9.80
2023-04-17T13:33:44.598Z,9.70
2023-04-17T13:36:12.566Z,9.60
2023-04-17T13:38:40.105Z,9.70
2023-04-17T13:41:07.637Z,9.80
2023-04-17T13:43:35.188Z,9.90
2023-04-17T13:46:02.799Z,9.90
2023-04-17T13:48:30.348Z,9.70
2023-04-17T13:50:57.922Z,9.70
2023-04-17T13:53:25.493Z,9.70
2023-04-17T13:55:53.056Z,9.70
2023-04-17T13:58:20.712Z,9.60
2023-04-17T14:00:48.356Z,9.70
2023-04-17T14:03:16.003Z,9.60
2023-04-17T14:05:44.021Z,9.70
2023-04-17T14:08:11.595Z,9.80
2023-04-17T14:10:39.084Z,9.80
2023-04-17T14:13:07.178Z,9.80
2023-04-17T14:15:34.892Z,9.70
2023-04-17T14:18:02.453Z,9.70
2023-04-17T14:20:29.922Z,9.60
2023-04-17T14:22:57.599Z,9.70
2023-04-17T14:25:25.033Z,9.70
2023-04-17T14:27:52.621Z,9.90
2023-04-17T14:30:20.278Z,9.80
2023-04-17T14:32:49.421Z,9.90
2023-04-17T14:35:17.053Z,10.10
2023-04-17T14:37:44.601Z,10.10
2023-04-17T14:40:12.708Z,10.10
2023-04-17T14:42:51.182Z,10.20
2023-04-17T14:45:22.035Z,10.00
2023-04-17T14:47:49.644Z,9.90
2023-04-17T14:50:17.319Z,10.00
2023-04-17T14:52:44.918Z,10.10
2023-04-17T14:55:13.326Z,10.10
2023-04-17T14:57:40.874Z,10.10
2023-04-17T15:00:09.100Z,10.30
2023-04-17T15:02:38.415Z,10.30
2023-04-17T15:05:07.634Z,10.30
2023-04-17T15:07:35.827Z,10.40
2023-04-17T15:10:03.886Z,10.40
2023-04-17T15:12:31.327Z,10.50
2023-04-17T15:14:58.904Z,10.60
2023-04-17T15:17:26.530Z,10.50
2023-04-17T15:19:57.326Z,10.50
2023-04-17T15:22:26.383Z,10.50
2023-04-17T15:24:53.915Z,10.50
2023-04-17T15:27:21.477Z,10.50
2023-04-17T15:29:49.017Z,10.40
2023-04-17T15:32:16.724Z,10.40
2023-04-17T15:34:44.303Z,10.40
2023-04-17T15:37:12.238Z,10.40
2023-04-17T15:39:40.093Z,10.60
2023-04-17T15:42:09.844Z,10.40
2023-04-17T15:44:37.844Z,10.30
2023-04-17T15:47:08.084Z,10.50
2023-04-17T15:49:35.619Z,10.60
2023-04-17T15:52:03.109Z,10.50
2023-04-17T15:54:31.629Z,10.30
2023-04-17T15:56:59.381Z,10.30
2023-04-17T15:59:26.897Z,10.10
2023-04-17T16:01:54.670Z,10.10
2023-04-17T16:04:22.402Z,10.10
2023-04-17T16:06:50.473Z,10.10
2023-04-17T16:09:20.091Z,10.10
2023-04-17T16:11:48.584Z,10.00
2023-04-17T16:14:16.400Z,10.00
2023-04-17T16:16:43.912Z,10.00
2023-04-17T16:19:11.745Z,10.00
2023-04-17T16:21:39.487Z,10.10
2023-04-17T16:24:07.078Z,10.00
2023-04-17T16:26:34.815Z,10.10
2023-04-17T16:29:02.304Z,10.00
2023-04-17T16:31:29.837Z,9.90
2023-04-17T16:33:57.322Z,9.90
2023-04-17T16:36:24.848Z,10.10
2023-04-17T16:38:52.315Z,10.10
2023-04-17T16:41:20.446Z,10.00
2023-04-17T16:43:47.947Z,9.90
2023-04-17T16:46:23.823Z,9.80
2023-04-17T16:48:56.344Z,10.00
2023-04-17T16:51:23.961Z,9.80
2023-04-17T16:53:51.615Z,9.90
2023-04-17T16:56:19.117Z,9.80
2023-04-17T16:58:46.642Z,9.80
2023-04-17T17:01:14.391Z,9.70
2023-04-17T17:03:43.285Z,9.70
2023-04-17T17:06:10.841Z,9.70
2023-04-17T17:08:39.018Z,9.80
2023-04-17T17:11:06.517Z,9.80
2023-04-17T17:13:33.980Z,9.70
2023-04-17T17:16:01.593Z,9.70
2023-04-17T17:18:29.198Z,9.60
2023-04-17T17:20:58.581Z,9.60
2023-04-17T17:23:26.779Z,9.60
2023-04-17T17:25:54.245Z,9.60
2023-04-17T17:28:21.717Z,9.50
2023-04-17T17:30:49.616Z,9.40
2023-04-17T17:33:17.226Z,9.40
2023-04-17T17:35:44.772Z,9.40
2023-04-17T17:38:12.430Z,9.30
2023-04-17T17:40:39.887Z,9.20
2023-04-17T17:43:07.454Z,9.20
2023-04-17T17:45:35.147Z,9.20
2023-04-17T17:48:02.797Z,9.30
2023-04-17T17:50:30.288Z,9.30
2023-04-17T17:52:58.940Z,9.20
2023-04-17T17:55:26.799Z,9.30
2023-04-17T17:57:54.255Z,9.20
2023-04-17T18:00:21.875Z,9.20
2023-04-17T18:02:49.605Z,9.20
2023-04-17T18:05:17.196Z,9.10
2023-04-17T18:07:44.906Z,9.10
2023-04-17T18:10:12.497Z,9.10
2023-04-17T18:12:40.168Z,9.20
2023-04-17T18:15:08.936Z,9.00
2023-04-17T18:17:36.595Z,9.10
2023-04-17T18:20:04.172Z,9.10
2023-04-17T18:22:31.741Z,9.20
2023-04-17T18:24:59.225Z,9.10
2023-04-17T18:27:26.711Z,9.10
2023-04-17T18:29:54.211Z,8.90
2023-04-17T18:32:21.804Z,9.00
2023-04-17T18:34:50.869Z,9.00
2023-04-17T18:37:18.639Z,9.10
2023-04-17T18:39:46.053Z,9.00
2023-04-17T18:42:13.556Z,9.00
2023-04-17T18:44:41.942Z,8.90
2023-04-17T18:47:09.580Z,9.00
2023-04-17T18:49:37.039Z,8.80
2023-04-17T18:52:05.682Z,8.90
2023-04-17T18:54:33.362Z,8.90
2023-04-17T18:57:01.947Z,9.00
2023-04-17T18:59:30.256Z,8.80
2023-04-17T19:01:57.970Z,8.70
2023-04-17T19:04:26.060Z,8.80
2023-04-17T19:06:53.518Z,8.80
2023-04-17T19:09:21.222Z,8.70
2023-04-17T19:11:48.761Z,8.60
2023-04-17T19:14:16.250Z,8.60
2023-04-17T19:16:45.753Z,8.60
2023-04-17T19:19:15.617Z,8.60
2023-04-17T19:21:43.277Z,8.60
2023-04-17T19:24:10.919Z,8.60
2023-04-17T19:26:38.427Z,8.50
2023-04-17T19:29:06.052Z,8.60
2023-04-17T19:31:33.739Z,8.60
2023-04-17T19:34:01.682Z,8.40
2023-04-17T19:36:29.209Z,8.50
2023-04-17T19:38:59.692Z,8.50
2023-04-17T19:41:28.449Z,8.50
2023-04-17T19:43:56.005Z,8.30
2023-04-17T19:46:24.615Z,8.30
2023-04-17T19:48:52.692Z,8.40
2023-04-17T19:51:20.516Z,8.30
2023-04-17T19:53:48.248Z,8.40
2023-04-17T19:56:16.642Z,8.40
2023-04-17T19:58:44.356Z,8.40
2023-04-17T20:01:12.058Z,8.40
2023-04-17T20:03:42.236Z,8.40
2023-04-17T20:06:10.017Z,8.20
2023-04-17T20:08:37.543Z,8.30
2023-04-17T20:11:06.379Z,8.30
2023-04-17T20:13:33.984Z,8.30
2023-04-17T20:16:01.548Z,8.30
2023-04-17T20:18:29.036Z,8.30
2023-04-17T20:20:56.461Z,8.20
2023-04-17T20:23:24.009Z,8.30
2023-04-17T20:25:51.458Z,8.20
2023-04-17T20:28:19.287Z,8.00
2023-04-17T20:30:46.875Z,8.10
2023-04-17T20:33:14.405Z,8.10
2023-04-17T20:35:42.363Z,8.00
2023-04-17T20:38:09.907Z,8.20
2023-04-17T20:40:37.368Z,8.20
2023-04-17T20:43:04.907Z,8.00
2023-04-17T20:45:32.429Z,8.10
2023-04-17T20:48:00.107Z,7.90
2023-04-17T20:50:28.184Z,8.10
2023-04-17T20:52:55.734Z,7.90
2023-04-17T20:55:41.387Z,7.90
2023-04-17T20:58:08.977Z,8.10
2023-04-17T21:00:38.563Z,7.90
2023-04-17T21:03:12.452Z,8.10
2023-04-17T21:05:40.071Z,8.10
2023-04-17T21:08:07.704Z,7.90
2023-04-17T21:10:35.217Z,8.10
2023-04-17T21:13:02.709Z,7.90
2023-04-17T21:15:31.111Z,7.90
2023-04-17T21:17:58.713Z,8.00
2023-04-17T21:20:26.229Z,8.00
2023-04-17T21:22:53.679Z,7.90
2023-04-17T21:25:21.570Z,7.80
2023-04-17T21:27:49.159Z,8.00
2023-04-17T21:30:16.734Z,7.80
2023-04-17T21:32:45.276Z,8.00
2023-04-17T21:35:12.760Z,7.90
2023-04-17T21:37:40.394Z,8.00
2023-04-17T21:40:08.590Z,7.90
2023-04-17T21:42:36.203Z,7.90
2023-04-17T21:45:03.809Z,7.90
2023-04-17T21:47:31.303Z,8.00
2023-04-17T21:50:00.478Z,7.80
2023-04-17T21:52:28.076Z,7.80
2023-04-17T21:55:02.790Z,7.80
2023-04-17T21:57:34.189Z,7.90
2023-04-17T22:00:04.526Z,7.90
2023-04-17T22:02:34.250Z,7.90
2023-04-17T22:05:01.836Z,8.00
2023-04-17T22:07:29.373Z,7.80
2023-04-17T22:09:56.854Z,7.80
2023-04-17T22:12:24.274Z,7.80
2023-04-17T22:14:51.858Z,7.70
2023-04-17T22:17:19.489Z,7.70
2023-04-17T22:19:47.037Z,7.80
2023-04-17T22:22:14.457Z,7.80
2023-04-17T22:24:42.335Z,7.80
2023-04-17T22:27:09.933Z,7.80
2023-04-17T22:29:37.429Z,7.70
2023-04-17T22:32:05.063Z,7.80
2023-04-17T22:34:32.540Z,7.70
2023-04-17T22:37:00.095Z,7.50
2023-04-17T22:39:27.605Z,7.50
2023-04-17T22:41:55.269Z,7.60
2023-04-17T22:44:22.847Z,7.50
2023-04-17T22:46:50.260Z,7.70
2023-04-17T22:49:19.782Z,7.50
2023-04-17T22:51:47.936Z,7.50
2023-04-17T22:54:22.866Z,7.40
2023-04-17T22:56:51.126Z,7.40
2023-04-17T22:59:18.587Z,7.40
2023-04-17T23:01:46.120Z,7.40
2023-04-17T23:04:13.856Z,7.40
2023-04-17T23:06:41.766Z,7.40
2023-04-17T23:09:09.230Z,7.50
2023-04-17T23:11:36.816Z,7.30
2023-04-17T23:14:04.254Z,7.30
2023-04-17T23:16:32.129Z,7.30
2023-04-17T23:18:59.641Z,7.30
2023-04-17T23:21:27.201Z,7.20
2023-04-17T23:23:55.373Z,7.20
2023-04-17T23:26:22.989Z,7.30
2023-04-17T23:28:50.398Z,7.30
2023-04-17T23:31:18.005Z,7.20
2023-04-17T23:33:45.673Z,7.30
2023-04-17T23:36:13.751Z,7.20
2023-04-17T23:38:41.229Z,7.30
2023-04-17T23:41:08.757Z,7.30
2023-04-17T23:43:36.365Z,7.30
2023-04-17T23:46:03.923Z,7.30
2023-04-17T23:48:31.384Z,7.30
2023-04-17T23:50:58.911Z,7.20
2023-04-17T23:53:26.347Z,7.10
2023-04-17T23:55:54.475Z,7.20
2023-04-17T23:58:21.925Z,7.10
